createdAt,value
2018-05-15T00:00:25.983Z,4.70
2018-05-15T00:05:10.039Z,4.90
2018-05-15T00:09:54.130Z,5.33
2018-05-15T00:14:37.535Z,5.33
2018-05-15T00:19:20.959Z,4.90
2018-05-15T00:24:04.251Z,4.77
2018-05-15T00:28:47.669Z,5.27
2018-05-15T00:33:31.766Z,5.33
2018-05-15T00:38:15.172Z,5.20
2018-05-15T00:42:59.332Z,5.37
2018-05-15T00:47:43.391Z,5.70
2018-05-15T00:52:27.510Z,6.30
2018-05-15T00:57:10.803Z,6.60
2018-05-15T01:01:54.138Z,6.23
2018-05-15T01:06:37.537Z,6.33
2018-05-15T01:11:21.671Z,6.67
2018-05-15T01:16:04.969Z,6.50
2018-05-15T01:20:49.360Z,7.00
2018-05-15T01:25:32.659Z,6.90
2018-05-15T01:30:16.741Z,7.40
2018-05-15T01:35:00.881Z,7.20
2018-05-15T01:39:44.237Z,6.57
2018-05-15T01:44:28.348Z,7.57
2018-05-15T01:49:11.705Z,7.03
2018-05-15T01:53:55.786Z,8.40
2018-05-15T01:58:39.154Z,7.63
2018-05-15T02:03:22.440Z,7.83
2018-05-15T02:08:06.711Z,7.87
2018-05-15T02:12:50.275Z,8.20
2018-05-15T02:17:34.399Z,8.10
2018-05-15T02:22:17.799Z,8.03
2018-05-15T02:27:01.832Z,7.77
2018-05-15T02:31:45.939Z,8.50
2018-05-15T02:36:29.222Z,9.10
2018-05-15T02:41:13.323Z,8.70
2018-05-15T02:45:56.659Z,8.90
2018-05-15T02:50:39.969Z,9.43
2018-05-15T02:55:24.032Z,9.17
2018-05-15T03:00:08.188Z,9.60
2018-05-15T03:04:51.545Z,8.37
2018-05-15T03:09:34.938Z,8.73
2018-05-15T03:14:18.296Z,9.43
2018-05-15T03:19:01.713Z,8.93
2018-05-15T03:23:45.874Z,9.27
2018-05-15T03:28:30.076Z,9.90
2018-05-15T03:33:13.415Z,9.03
2018-05-15T03:37:57.555Z,9.23
2018-05-15T03:42:40.884Z,8.37
2018-05-15T03:47:24.212Z,8.60
2018-05-15T03:52:07.559Z,8.83
2018-05-15T03:56:50.899Z,9.90
2018-05-15T04:01:45.929Z,8.50
2018-05-15T04:06:40.957Z,7.50
2018-05-15T04:11:25.014Z,9.87
2018-05-15T04:16:09.161Z,9.33
2018-05-15T04:20:52.576Z,9.47
2018-05-15T04:25:35.955Z,8.97
2018-05-15T04:30:19.285Z,8.80
2018-05-15T04:35:03.470Z,8.67
2018-05-15T04:39:46.883Z,8.93
2018-05-15T04:44:30.270Z,8.50
2018-05-15T04:49:13.714Z,8.23
2018-05-15T04:53:57.228Z,8.60
2018-05-15T04:58:41.404Z,8.37
2018-05-15T05:03:25.619Z,8.10
2018-05-15T05:08:09.101Z,8.90
2018-05-15T05:12:52.570Z,7.87
2018-05-15T05:17:36.012Z,8.67
2018-05-15T05:22:19.431Z,7.67
2018-05-15T05:27:03.559Z,7.20
2018-05-15T05:31:46.924Z,8.20
2018-05-15T05:36:31.067Z,7.70
2018-05-15T05:41:14.431Z,7.27
2018-05-15T05:45:58.559Z,7.70
2018-05-15T05:50:41.967Z,8.23
2018-05-15T05:55:28.907Z,7.70
2018-05-15T06:00:12.274Z,7.97
2018-05-15T06:04:55.831Z,8.57
2018-05-15T06:09:40.003Z,8.80
2018-05-15T06:14:23.426Z,8.43
2018-05-15T06:19:06.731Z,8.40
2018-05-15T06:23:50.017Z,7.77
2018-05-15T06:28:33.418Z,7.23
2018-05-15T06:33:16.754Z,7.77
2018-05-15T06:38:01.871Z,7.93
2018-05-15T06:42:46.118Z,7.57
2018-05-15T06:47:30.250Z,7.80
2018-05-15T06:52:13.566Z,6.93
2018-05-15T06:56:57.096Z,7.40
2018-05-15T07:01:40.498Z,7.10
2018-05-15T07:06:23.845Z,6.87
2018-05-15T07:11:07.273Z,7.40
2018-05-15T07:15:50.618Z,5.83
2018-05-15T07:20:33.890Z,6.37
2018-05-15T07:25:17.985Z,5.87
2018-05-15T07:30:01.351Z,5.80
2018-05-15T07:34:44.679Z,6.40
2018-05-15T07:39:28.855Z,6.00
2018-05-15T07:44:12.213Z,7.07
2018-05-15T07:48:56.318Z,6.50
2018-05-15T07:53:40.517Z,7.43
2018-05-15T07:58:23.731Z,6.13
2018-05-15T08:03:07.879Z,6.47
2018-05-15T08:07:51.237Z,7.27
2018-05-15T08:12:34.589Z,7.67
2018-05-15T08:17:17.910Z,7.97
2018-05-15T08:22:03.099Z,7.00
2018-05-15T08:26:46.679Z,7.30
2018-05-15T08:31:30.892Z,6.50
2018-05-15T08:36:14.240Z,6.97
2018-05-15T08:40:57.564Z,6.27
2018-05-15T08:45:40.883Z,7.03
2018-05-15T08:50:24.947Z,6.80
2018-05-15T08:55:08.362Z,7.00
2018-05-15T08:59:52.490Z,6.87
2018-05-15T09:04:36.603Z,7.30
2018-05-15T09:09:20.699Z,7.37
2018-05-15T09:14:04.838Z,5.90
2018-05-15T09:18:48.245Z,6.73
2018-05-15T09:23:31.603Z,5.70
2018-05-15T09:28:15.135Z,5.70
2018-05-15T09:33:00.219Z,4.03
2018-05-15T09:37:43.507Z,4.10
2018-05-15T09:42:26.997Z,3.73
2018-05-15T09:47:10.440Z,4.40
2018-05-15T09:51:53.730Z,4.07
2018-05-15T09:56:37.143Z,3.93
2018-05-15T10:01:20.480Z,4.00
2018-05-15T10:06:03.804Z,3.80
2018-05-15T10:10:47.105Z,3.83
2018-05-15T10:15:30.435Z,4.03
2018-05-15T10:20:13.739Z,3.83
2018-05-15T10:24:57.090Z,5.03
2018-05-15T10:29:41.181Z,5.43
2018-05-15T10:34:24.494Z,5.43
2018-05-15T10:39:07.855Z,4.63
2018-05-15T10:43:51.217Z,5.17
2018-05-15T10:48:34.503Z,5.70
2018-05-15T10:53:17.838Z,6.53
2018-05-15T10:58:02.057Z,6.70
2018-05-15T11:02:45.540Z,4.53
2018-05-15T11:07:29.074Z,4.80
2018-05-15T11:12:12.588Z,5.63
2018-05-15T11:16:55.974Z,6.60
2018-05-15T11:21:51.916Z,5.50
2018-05-15T11:26:36.094Z,5.47
2018-05-15T11:31:19.478Z,5.30
2018-05-15T11:36:03.730Z,4.90
2018-05-15T11:40:46.976Z,5.40
2018-05-15T11:45:30.328Z,5.80
2018-05-15T11:50:14.877Z,6.17
2018-05-15T11:54:57.017Z,6.33
2018-05-15T11:59:40.421Z,4.67
2018-05-15T12:04:23.729Z,5.60
2018-05-15T12:09:08.048Z,5.10
2018-05-15T12:13:52.551Z,4.70
2018-05-15T12:18:36.059Z,4.90
2018-05-15T12:23:19.444Z,5.50
2018-05-15T12:28:02.930Z,4.50
2018-05-15T12:32:46.289Z,4.90
2018-05-15T12:37:30.443Z,5.17
2018-05-15T12:42:14.154Z,4.90
2018-05-15T12:46:57.597Z,4.40
2018-05-15T12:51:41.046Z,4.77
2018-05-15T12:56:25.131Z,4.83
2018-05-15T13:01:09.274Z,4.80
2018-05-15T13:05:52.558Z,5.03
2018-05-15T13:10:36.802Z,4.73
2018-05-15T13:15:20.895Z,5.30
2018-05-15T13:20:04.207Z,5.63
2018-05-15T13:24:48.361Z,4.80
2018-05-15T13:29:31.639Z,4.43
2018-05-15T13:34:15.016Z,5.27
2018-05-15T13:38:58.345Z,4.90
2018-05-15T13:43:41.656Z,5.13
2018-05-15T13:48:24.992Z,5.10
2018-05-15T13:53:08.359Z,5.10
2018-05-15T13:57:51.807Z,4.93
2018-05-15T14:02:36.445Z,4.80
2018-05-15T14:07:20.505Z,4.93
2018-05-15T14:12:06.236Z,4.73
2018-05-15T14:16:49.650Z,4.83
2018-05-15T14:21:33.035Z,5.43
2018-05-15T14:26:17.095Z,4.77
2018-05-15T14:31:00.441Z,5.00
2018-05-15T14:35:43.765Z,5.93
2018-05-15T14:40:29.205Z,6.40
2018-05-15T14:45:16.365Z,5.50
2018-05-15T14:49:59.762Z,5.37
2018-05-15T14:54:43.839Z,5.30
2018-05-15T14:59:27.184Z,7.73
2018-05-15T15:04:10.528Z,5.90
2018-05-15T15:08:53.908Z,6.17
2018-05-15T15:13:37.215Z,6.20
2018-05-15T15:18:20.575Z,6.73
2018-05-15T15:23:03.859Z,6.10
2018-05-15T15:27:47.958Z,8.00
2018-05-15T15:32:31.277Z,8.30
2018-05-15T15:37:14.610Z,7.93
2018-05-15T15:41:58.712Z,8.40
2018-05-15T15:46:42.091Z,8.87
2018-05-15T15:51:25.442Z,8.97
2018-05-15T15:56:09.006Z,9.00
2018-05-15T16:00:52.307Z,9.23
2018-05-15T16:05:37.216Z,9.40
2018-05-15T16:10:20.584Z,8.83
2018-05-15T16:15:03.897Z,7.40
2018-05-15T16:19:47.277Z,6.73
2018-05-15T16:24:30.596Z,7.23
2018-05-15T16:29:13.901Z,6.53
2018-05-15T16:33:57.277Z,6.90
2018-05-15T16:38:40.614Z,6.67
2018-05-15T16:43:23.982Z,7.00
2018-05-15T16:48:07.382Z,7.70
2018-05-15T16:52:50.717Z,7.60
2018-05-15T16:57:40.567Z,7.70
2018-05-15T17:02:24.756Z,7.77
2018-05-15T17:07:08.897Z,7.10
2018-05-15T17:11:53.005Z,7.27
2018-05-15T17:16:36.376Z,7.60
2018-05-15T17:21:19.847Z,7.27
2018-05-15T17:26:03.982Z,7.50
2018-05-15T17:30:47.763Z,7.57
2018-05-15T17:35:33.114Z,8.37
2018-05-15T17:40:27.484Z,7.13
2018-05-15T17:45:11.662Z,8.53
2018-05-15T17:49:55.302Z,8.30
2018-05-15T17:54:38.663Z,7.43
2018-05-15T17:59:22.127Z,7.13
2018-05-15T18:04:05.464Z,7.53
2018-05-15T18:08:49.002Z,7.10
2018-05-15T18:13:32.399Z,7.70
2018-05-15T18:18:16.545Z,8.47
2018-05-15T18:23:00.010Z,8.63
2018-05-15T18:27:43.613Z,8.40
2018-05-15T18:32:28.087Z,8.50
2018-05-15T18:37:11.615Z,8.23
2018-05-15T18:41:55.474Z,8.47
2018-05-15T18:46:44.456Z,8.00
2018-05-15T18:51:31.333Z,7.70
2018-05-15T18:56:15.868Z,7.47
2018-05-15T19:00:59.813Z,8.07
2018-05-15T19:05:43.865Z,7.73
2018-05-15T19:10:27.474Z,7.77
2018-05-15T19:15:10.909Z,7.53
2018-05-15T19:19:54.703Z,7.57
2018-05-15T19:24:44.664Z,7.60
2018-05-15T19:29:28.511Z,7.10
2018-05-15T19:34:17.653Z,7.23
2018-05-15T19:39:06.644Z,6.10
2018-05-15T19:43:50.202Z,6.23
2018-05-15T19:48:34.076Z,6.20
2018-05-15T19:53:17.740Z,6.57
2018-05-15T19:58:01.553Z,6.37
2018-05-15T20:02:46.240Z,6.30
2018-05-15T20:07:30.873Z,6.17
2018-05-15T20:12:14.302Z,6.07
2018-05-15T20:16:58.030Z,6.33
2018-05-15T20:21:41.437Z,5.90
2018-05-15T20:26:25.628Z,5.93
2018-05-15T20:31:09.390Z,5.80
2018-05-15T20:35:53.535Z,6.23
2018-05-15T20:40:36.958Z,6.03
2018-05-15T20:45:20.483Z,6.13
2018-05-15T20:50:03.902Z,5.93
2018-05-15T20:54:47.243Z,6.07
2018-05-15T20:59:30.665Z,5.87
2018-05-15T21:04:14.388Z,6.90
2018-05-15T21:08:57.832Z,6.87
2018-05-15T21:13:41.363Z,6.87
2018-05-15T21:18:25.067Z,6.23
2018-05-15T21:23:08.737Z,5.90
2018-05-15T21:27:52.335Z,6.53
2018-05-15T21:32:35.775Z,6.37
2018-05-15T21:37:19.538Z,7.00
2018-05-15T21:42:02.859Z,6.77
2018-05-15T21:46:46.202Z,6.87
2018-05-15T21:51:29.659Z,6.40
2018-05-15T21:56:13.074Z,5.73
2018-05-15T22:00:57.305Z,6.87
2018-05-15T22:05:40.821Z,6.47
2018-05-15T22:10:24.181Z,6.10
2018-05-15T22:15:19.207Z,6.57
2018-05-15T22:20:20.180Z,6.30
2018-05-15T22:25:09.472Z,6.60
2018-05-15T22:29:53.847Z,6.77
2018-05-15T22:34:37.971Z,6.67
2018-05-15T22:39:21.366Z,6.77
2018-05-15T22:44:05.748Z,7.13
2018-05-15T22:48:49.140Z,7.07
2018-05-15T22:53:32.462Z,6.93
2018-05-15T22:58:15.805Z,6.60
2018-05-15T23:02:59.236Z,7.17
2018-05-15T23:07:42.609Z,5.83
2018-05-15T23:12:26.813Z,7.27
2018-05-15T23:17:10.163Z,8.20
2018-05-15T23:21:53.477Z,9.97
2018-05-15T23:26:38.397Z,10.63
2018-05-15T23:31:21.762Z,9.70
2018-05-15T23:36:05.082Z,11.27
2018-05-15T23:40:48.475Z,11.30
2018-05-15T23:45:32.578Z,12.70
2018-05-15T23:50:16.075Z,12.17
2018-05-15T23:54:59.429Z,13.20
2018-05-15T23:59:42.877Z,14.70
